OMAAFNLU

Guest
Details From OMAA - Abu Dhabi Intl
To FNLU - Luanda 4 De Fevereiro
Flight Number -
Tags Generated
Created
Modified
Stats Distance 3,144 nm / 5,822 km
Max Altitude 0 ft / 0 m
Waypoints 4
Social Downloads 0
Likes 0
Share VATSIM

Download

Looking for another format? Having issues loading an existing format? Contact us
Advertisement - Login to hide

Notes

Generated

Route

OMAA RIBOK LU FNLU

ID Type Via Altitude Latitude Longitude Leg Dist Tot Dist Heading (true) Name
O OMAA APT - 0 ft / 0 m 24.44439˚ 54.63521˚ - 0 nm - -
RIBOK FIX - 0 ft / 0 m 15.78333˚ 41.87500˚ 886 nm 886 nm 236° / 232° -
LU NDB - 0 ft / 0 m -8.79264˚ 13.30394˚ 2250 nm 3137 nm 231° / 229° LUANDA NDB
O FNLU APT - 0 ft / 0 m -8.85561˚ 13.22570˚ 5 nm 3143 nm 231° / 231° LUANDA 4 DE FEVEREIRO

Altitude Profile

Advertisement - Login to hide

Weather


0- 5 10 15 20 25 30 35+ Temperature / ° C

Clouds and Precipitation
Forecast for 2017-12-14 18:00 UTC. Updated 2 hours ago

Ground ~20,000 ft ~40,000 ft Winds

OMAA

Details ICAO OMAA (AUH)
Name ABU DHABI INTL
Region United Arab Emirates
Timezone Asia/Dubai (UTC+4.0)
Stats Elevation 88 ft / 27 m (AMSL)
Location 24.433049° 54.651182°
Runways 1
Magnetic Variation 1.979° E

METAR

OMAA 141900Z 06006KT 040V100 CAVOK 21/14 Q1017 NOSIG

Decode

TAF

TAF OMAA 141700Z 1418/1600 09006KT 8000 NSC BECMG 1502/1504 17011KT PROB30 TEMPO 1506/1509 18017G27KT 4000 BLDU BECMG 1518/1520 10008KT

Decode

Departure Runways

ID Width Length Bearing (true) Bearing (mag) Surface Threshold Offset Overrun Length
13 148 ft / 45 m 13,461 ft / 4,103 m 127.94° 125.96° Asphalt 0 ft / 0 m 180 ft / 55 m
31 148 ft / 45 m 13,461 ft / 4,103 m 307.95° 305.97° Asphalt 0 ft / 0 m 196 ft / 60 m

FNLU

Details ICAO FNLU (LAD)
Name LUANDA 4 DE FEVEREIRO
Region Angola
Timezone Africa/Luanda (UTC+1.0)
Stats Elevation 243 ft / 74 m (AMSL)
Location -8.858377° 13.231178°
Runways 2
Magnetic Variation 3.483° W

METAR

FNLU 141800Z 24007KT 9999 FEW020 BKN080 27/23 Q1010

Decode

TAF

TAF FNLU 141645Z 1418/1524 23008KT 9999 FEW020 SCT023 BECMG 1420/1422 18007KT 8000 SCT020 TEMPO 1504/1508 VRB03KT 6000 DZ SCT016 BKN020 BECMG 1510/1512 25008KT 9000 FEW018 BKN025 TEMPO 1514/1518 23010KT 9999 SCT020 FEW025TCU

Decode

Destination Runways

ID Width Length Bearing (true) Bearing (mag) Surface Threshold Offset Overrun Length
05 148 ft / 45 m 12,153 ft / 3,704 m 46.63° 50.11° Asphalt 0 ft / 0 m 0 ft / 0 m
07 197 ft / 60 m 8,176 ft / 2,492 m 67.40° 70.88° Asphalt 0 ft / 0 m 176 ft / 54 m
23 148 ft / 45 m 12,153 ft / 3,704 m 226.62° 230.10° Asphalt 500 ft / 152 m 0 ft / 0 m
25 197 ft / 60 m 8,176 ft / 2,492 m 247.40° 250.88° Asphalt 0 ft / 0 m 0 ft / 0 m

Approach Navaids

Runway Type Ident Frequency Range Bearing (true) Bearing (mag) Slope Elevation
23 Localiser ILD 110.30 MHz 18 nm / 33 km 226.62° 230.11° - 243 ft / 74 m (AMSL)
23 Glidescope ILD 110.30 MHz 10 nm / 19 km 226.62° 230.11° 3.00° 243 ft / 74 m (AMSL)
23 DME ILD 110.30 MHz 18 nm / 33 km - - - 243 ft / 74 m (AMSL)